sensor_id;sensor_type;location;lat;lon;timestamp;temperature;humidity
13049;DHT22;6591;51.446;5.404;2024-01-16T00:00:00;3.10;99.90
13049;DHT22;6591;51.446;5.404;2024-01-16T00:02:30;4.20;99.90
13049;DHT22;6591;51.446;5.404;2024-01-16T00:04:57;3.10;99.90
13049;DHT22;6591;51.446;5.404;2024-01-16T00:07:24;3.10;99.90
13049;DHT22;6591;51.446;5.404;2024-01-16T00:09:51;3.10;99.90
13049;DHT22;6591;51.446;5.404;2024-01-16T00:12:20;3.10;99.90
13049;DHT22;6591;51.446;5.404;2024-01-16T00:14:47;3.10;99.90
13049;DHT22;6591;51.446;5.404;2024-01-16T00:17:14;3.10;99.90
13049;DHT22;6591;51.446;5.404;2024-01-16T00:19:41;3.10;99.90
13049;DHT22;6591;51.446;5.404;2024-01-16T00:22:09;3.10;99.90
13049;DHT22;6591;51.446;5.404;2024-01-16T00:24:36;3.10;99.90
13049;DHT22;6591;51.446;5.404;2024-01-16T00:27:03;3.10;99.90
13049;DHT22;6591;51.446;5.404;2024-01-16T00:29:37;3.10;99.90
13049;DHT22;6591;51.446;5.404;2024-01-16T00:32:05;3.20;99.90
13049;DHT22;6591;51.446;5.404;2024-01-16T00:34:32;3.20;99.90
13049;DHT22;6591;51.446;5.404;2024-01-16T00:36:59;3.20;99.90
13049;DHT22;6591;51.446;5.404;2024-01-16T00:39:26;5.10;99.90
13049;DHT22;6591;51.446;5.404;2024-01-16T00:41:54;3.20;99.90
13049;DHT22;6591;51.446;5.404;2024-01-16T00:44:21;3.20;99.90
13049;DHT22;6591;51.446;5.404;2024-01-16T00:46:48;3.20;99.90
13049;DHT22;6591;51.446;5.404;2024-01-16T00:49:15;3.20;99.90
13049;DHT22;6591;51.446;5.404;2024-01-16T00:51:47;3.20;99.90
13049;DHT22;6591;51.446;5.404;2024-01-16T00:54:14;3.20;99.90
13049;DHT22;6591;51.446;5.404;2024-01-16T00:56:42;3.20;99.90
13049;DHT22;6591;51.446;5.404;2024-01-16T00:59:09;3.20;99.90
13049;DHT22;6591;51.446;5.404;2024-01-16T01:01:39;3.20;99.90
13049;DHT22;6591;51.446;5.404;2024-01-16T01:04:06;3.40;99.90
13049;DHT22;6591;51.446;5.404;2024-01-16T01:06:35;3.60;99.90
13049;DHT22;6591;51.446;5.404;2024-01-16T01:09:02;3.30;99.90
13049;DHT22;6591;51.446;5.404;2024-01-16T01:11:30;3.30;99.90
13049;DHT22;6591;51.446;5.404;2024-01-16T01:13:57;3.30;99.90
13049;DHT22;6591;51.446;5.404;2024-01-16T01:16:26;3.20;99.90
13049;DHT22;6591;51.446;5.404;2024-01-16T01:18:53;3.30;99.90
13049;DHT22;6591;51.446;5.404;2024-01-16T01:21:20;3.30;99.90
13049;DHT22;6591;51.446;5.404;2024-01-16T01:23:47;3.30;99.90
13049;DHT22;6591;51.446;5.404;2024-01-16T01:26:14;4.50;99.90
13049;DHT22;6591;51.446;5.404;2024-01-16T01:28:47;2.20;99.90
13049;DHT22;6591;51.446;5.404;2024-01-16T01:31:14;3.30;99.90
13049;DHT22;6591;51.446;5.404;2024-01-16T01:33:41;3.30;99.90
13049;DHT22;6591;51.446;5.404;2024-01-16T01:36:09;3.30;99.90
13049;DHT22;6591;51.446;5.404;2024-01-16T01:38:36;3.30;99.90
13049;DHT22;6591;51.446;5.404;2024-01-16T01:41:05;3.30;99.90
13049;DHT22;6591;51.446;5.404;2024-01-16T01:43:34;3.30;99.90
13049;DHT22;6591;51.446;5.404;2024-01-16T01:46:17;3.30;99.90
13049;DHT22;6591;51.446;5.404;2024-01-16T01:48:47;3.30;99.90
13049;DHT22;6591;51.446;5.404;2024-01-16T01:51:18;4.10;99.90
13049;DHT22;6591;51.446;5.404;2024-01-16T01:53:48;3.40;99.90
13049;DHT22;6591;51.446;5.404;2024-01-16T01:56:20;3.30;99.90
13049;DHT22;6591;51.446;5.404;2024-01-16T01:58:53;3.30;99.90
13049;DHT22;6591;51.446;5.404;2024-01-16T02:01:24;3.30;99.90
13049;DHT22;6591;51.446;5.404;2024-01-16T02:03:52;3.30;99.90
13049;DHT22;6591;51.446;5.404;2024-01-16T02:06:22;3.30;99.90
13049;DHT22;6591;51.446;5.404;2024-01-16T02:08:49;3.30;99.90
13049;DHT22;6591;51.446;5.404;2024-01-16T02:11:18;3.30;99.90
13049;DHT22;6591;51.446;5.404;2024-01-16T02:13:45;4.70;99.90
13049;DHT22;6591;51.446;5.404;2024-01-16T02:16:22;3.30;99.90
13049;DHT22;6591;51.446;5.404;2024-01-16T02:18:51;5.30;99.90
13049;DHT22;6591;51.446;5.404;2024-01-16T02:21:23;3.30;99.90
13049;DHT22;6591;51.446;5.404;2024-01-16T02:23:54;3.30;99.90
13049;DHT22;6591;51.446;5.404;2024-01-16T02:26:22;3.30;99.90
13049;DHT22;6591;51.446;5.404;2024-01-16T02:28:49;3.10;99.90
13049;DHT22;6591;51.446;5.404;2024-01-16T02:31:16;3.30;99.90
13049;DHT22;6591;51.446;5.404;2024-01-16T02:33:44;3.30;99.90
13049;DHT22;6591;51.446;5.404;2024-01-16T02:36:11;3.30;99.90
13049;DHT22;6591;51.446;5.404;2024-01-16T02:38:38;3.30;99.90
13049;DHT22;6591;51.446;5.404;2024-01-16T02:43:35;3.30;99.90
13049;DHT22;6591;51.446;5.404;2024-01-16T02:46:02;3.40;99.90
13049;DHT22;6591;51.446;5.404;2024-01-16T02:48:29;4.00;99.90
13049;DHT22;6591;51.446;5.404;2024-01-16T02:50:56;5.10;99.90
13049;DHT22;6591;51.446;5.404;2024-01-16T02:53:23;4.20;99.90
13049;DHT22;6591;51.446;5.404;2024-01-16T02:55:52;3.20;99.90
13049;DHT22;6591;51.446;5.404;2024-01-16T02:58:20;3.80;99.90
13049;DHT22;6591;51.446;5.404;2024-01-16T03:00:47;3.40;99.90
13049;DHT22;6591;51.446;5.404;2024-01-16T03:03:14;3.20;99.90
13049;DHT22;6591;51.446;5.404;2024-01-16T03:05:42;3.30;99.90
13049;DHT22;6591;51.446;5.404;2024-01-16T03:08:09;3.20;99.90
13049;DHT22;6591;51.446;5.404;2024-01-16T03:10:36;3.10;99.90
13049;DHT22;6591;51.446;5.404;2024-01-16T03:13:03;3.20;99.90
13049;DHT22;6591;51.446;5.404;2024-01-16T03:15:31;3.80;99.90
13049;DHT22;6591;51.446;5.404;2024-01-16T03:17:59;3.10;99.90
13049;DHT22;6591;51.446;5.404;2024-01-16T03:20:27;2.80;99.90
13049;DHT22;6591;51.446;5.404;2024-01-16T03:22:55;5.70;99.90
13049;DHT22;6591;51.446;5.404;2024-01-16T03:25:22;4.70;99.90
13049;DHT22;6591;51.446;5.404;2024-01-16T03:27:51;4.50;99.90
13049;DHT22;6591;51.446;5.404;2024-01-16T03:30:18;4.10;99.90
13049;DHT22;6591;51.446;5.404;2024-01-16T03:32:45;3.10;99.90
13049;DHT22;6591;51.446;5.404;2024-01-16T03:35:13;3.00;99.90
13049;DHT22;6591;51.446;5.404;2024-01-16T03:37:40;3.00;99.90
13049;DHT22;6591;51.446;5.404;2024-01-16T03:40:07;2.90;99.90
13049;DHT22;6591;51.446;5.404;2024-01-16T03:42:35;3.00;99.90
13049;DHT22;6591;51.446;5.404;2024-01-16T03:45:02;1.70;99.90
13049;DHT22;6591;51.446;5.404;2024-01-16T03:47:29;2.90;99.90
13049;DHT22;6591;51.446;5.404;2024-01-16T03:49:56;4.00;99.90
13049;DHT22;6591;51.446;5.404;2024-01-16T03:52:23;5.20;99.90
13049;DHT22;6591;51.446;5.404;2024-01-16T03:54:50;2.80;99.90
13049;DHT22;6591;51.446;5.404;2024-01-16T03:57:17;2.80;99.90
13049;DHT22;6591;51.446;5.404;2024-01-16T03:59:44;2.80;99.90
13049;DHT22;6591;51.446;5.404;2024-01-16T04:02:11;2.80;99.90
13049;DHT22;6591;51.446;5.404;2024-01-16T04:04:41;2.80;99.90
13049;DHT22;6591;51.446;5.404;2024-01-16T04:07:08;4.30;99.90
13049;DHT22;6591;51.446;5.404;2024-01-16T04:09:38;4.00;99.90
13049;DHT22;6591;51.446;5.404;2024-01-16T04:12:08;2.70;99.90
13049;DHT22;6591;51.446;5.404;2024-01-16T04:14:38;2.70;99.90
13049;DHT22;6591;51.446;5.404;2024-01-16T04:17:05;2.70;99.90
13049;DHT22;6591;51.446;5.404;2024-01-16T04:19:32;4.80;99.90
13049;DHT22;6591;51.446;5.404;2024-01-16T04:22:01;2.60;99.90
13049;DHT22;6591;51.446;5.404;2024-01-16T04:24:28;2.60;99.90
13049;DHT22;6591;51.446;5.404;2024-01-16T04:26:55;2.60;99.90
13049;DHT22;6591;51.446;5.404;2024-01-16T04:29:22;2.50;99.90
13049;DHT22;6591;51.446;5.404;2024-01-16T04:34:23;2.50;99.90
13049;DHT22;6591;51.446;5.404;2024-01-16T04:36:50;2.20;99.90
13049;DHT22;6591;51.446;5.404;2024-01-16T04:39:17;2.50;99.90
13049;DHT22;6591;51.446;5.404;2024-01-16T04:41:44;2.40;99.90
13049;DHT22;6591;51.446;5.404;2024-01-16T04:44:11;2.40;99.90
13049;DHT22;6591;51.446;5.404;2024-01-16T04:46:38;2.40;99.90
13049;DHT22;6591;51.446;5.404;2024-01-16T04:49:09;2.40;99.90
13049;DHT22;6591;51.446;5.404;2024-01-16T04:51:36;2.40;99.90
13049;DHT22;6591;51.446;5.404;2024-01-16T04:54:03;2.30;99.90
13049;DHT22;6591;51.446;5.404;2024-01-16T04:56:30;4.60;99.90
13049;DHT22;6591;51.446;5.404;2024-01-16T04:58:57;2.20;99.90
13049;DHT22;6591;51.446;5.404;2024-01-16T05:01:24;2.20;99.90
13049;DHT22;6591;51.446;5.404;2024-01-16T05:03:52;2.20;99.90
13049;DHT22;6591;51.446;5.404;2024-01-16T05:06:19;4.00;99.90
13049;DHT22;6591;51.446;5.404;2024-01-16T05:08:46;2.20;99.90
13049;DHT22;6591;51.446;5.404;2024-01-16T05:11:13;2.20;99.90
13049;DHT22;6591;51.446;5.404;2024-01-16T05:13:41;2.10;99.90
13049;DHT22;6591;51.446;5.404;2024-01-16T05:16:08;2.10;99.90
13049;DHT22;6591;51.446;5.404;2024-01-16T05:18:35;2.10;99.90
13049;DHT22;6591;51.446;5.404;2024-01-16T05:21:04;2.10;99.90
13049;DHT22;6591;51.446;5.404;2024-01-16T05:23:31;2.00;99.90
13049;DHT22;6591;51.446;5.404;2024-01-16T05:25:58;2.00;99.90
13049;DHT22;6591;51.446;5.404;2024-01-16T05:28:25;2.00;99.90
13049;DHT22;6591;51.446;5.404;2024-01-16T05:30:52;4.10;99.90
13049;DHT22;6591;51.446;5.404;2024-01-16T05:33:19;1.90;99.90
13049;DHT22;6591;51.446;5.404;2024-01-16T05:35:46;1.90;99.90
13049;DHT22;6591;51.446;5.404;2024-01-16T05:38:14;1.90;99.90
13049;DHT22;6591;51.446;5.404;2024-01-16T05:40:42;1.90;99.90
13049;DHT22;6591;51.446;5.404;2024-01-16T05:43:09;1.80;99.90
13049;DHT22;6591;51.446;5.404;2024-01-16T05:45:36;1.80;99.90
13049;DHT22;6591;51.446;5.404;2024-01-16T05:48:03;1.80;99.90
13049;DHT22;6591;51.446;5.404;2024-01-16T05:50:30;1.70;99.90
13049;DHT22;6591;51.446;5.404;2024-01-16T05:52:58;1.70;99.90
13049;DHT22;6591;51.446;5.404;2024-01-16T05:55:25;1.70;99.90
13049;DHT22;6591;51.446;5.404;2024-01-16T05:57:52;1.60;99.90
13049;DHT22;6591;51.446;5.404;2024-01-16T06:00:19;2.10;99.90
13049;DHT22;6591;51.446;5.404;2024-01-16T06:02:49;1.50;99.90
13049;DHT22;6591;51.446;5.404;2024-01-16T06:05:16;1.50;99.90
13049;DHT22;6591;51.446;5.404;2024-01-16T06:07:43;1.50;99.90
13049;DHT22;6591;51.446;5.404;2024-01-16T06:10:12;1.40;99.90
13049;DHT22;6591;51.446;5.404;2024-01-16T06:12:40;1.40;99.90
13049;DHT22;6591;51.446;5.404;2024-01-16T06:15:08;1.40;99.90
13049;DHT22;6591;51.446;5.404;2024-01-16T06:17:35;1.40;99.90
13049;DHT22;6591;51.446;5.404;2024-01-16T06:20:03;1.30;99.90
13049;DHT22;6591;51.446;5.404;2024-01-16T06:22:33;1.30;99.90
13049;DHT22;6591;51.446;5.404;2024-01-16T06:25:00;3.00;99.90
13049;DHT22;6591;51.446;5.404;2024-01-16T06:27:28;1.30;99.90
13049;DHT22;6591;51.446;5.404;2024-01-16T06:29:56;1.30;99.90
13049;DHT22;6591;51.446;5.404;2024-01-16T06:32:33;1.40;99.90
13049;DHT22;6591;51.446;5.404;2024-01-16T06:37:28;1.20;99.90
13049;DHT22;6591;51.446;5.404;2024-01-16T06:39:56;4.00;99.90
13049;DHT22;6591;51.446;5.404;2024-01-16T06:42:23;1.50;99.90
13049;DHT22;6591;51.446;5.404;2024-01-16T06:44:51;1.20;99.90
13049;DHT22;6591;51.446;5.404;2024-01-16T06:47:18;1.20;99.90
13049;DHT22;6591;51.446;5.404;2024-01-16T06:49:45;3.40;99.90
13049;DHT22;6591;51.446;5.404;2024-01-16T06:52:15;1.20;99.90
13049;DHT22;6591;51.446;5.404;2024-01-16T06:54:43;1.20;99.90
13049;DHT22;6591;51.446;5.404;2024-01-16T06:57:10;1.20;99.90
13049;DHT22;6591;51.446;5.404;2024-01-16T06:59:38;1.70;99.90
13049;DHT22;6591;51.446;5.404;2024-01-16T07:02:06;2.20;99.90
13049;DHT22;6591;51.446;5.404;2024-01-16T07:04:33;1.00;99.90
13049;DHT22;6591;51.446;5.404;2024-01-16T07:07:00;1.10;99.90
13049;DHT22;6591;51.446;5.404;2024-01-16T07:09:28;1.10;99.90
13049;DHT22;6591;51.446;5.404;2024-01-16T07:11:56;1.10;99.90
13049;DHT22;6591;51.446;5.404;2024-01-16T07:14:25;1.10;99.90
13049;DHT22;6591;51.446;5.404;2024-01-16T07:16:53;1.10;99.90
13049;DHT22;6591;51.446;5.404;2024-01-16T07:19:20;1.10;99.90
13049;DHT22;6591;51.446;5.404;2024-01-16T07:21:49;1.10;99.90
13049;DHT22;6591;51.446;5.404;2024-01-16T07:24:17;1.10;99.90
13049;DHT22;6591;51.446;5.404;2024-01-16T07:26:44;1.10;99.90
13049;DHT22;6591;51.446;5.404;2024-01-16T07:29:11;3.90;99.90
13049;DHT22;6591;51.446;5.404;2024-01-16T07:31:38;1.10;99.90
13049;DHT22;6591;51.446;5.404;2024-01-16T07:34:08;1.50;99.90
13049;DHT22;6591;51.446;5.404;2024-01-16T07:36:35;1.10;99.90
13049;DHT22;6591;51.446;5.404;2024-01-16T07:39:02;1.10;99.90
13049;DHT22;6591;51.446;5.404;2024-01-16T07:41:30;1.80;99.90
13049;DHT22;6591;51.446;5.404;2024-01-16T07:43:57;1.10;99.90
13049;DHT22;6591;51.446;5.404;2024-01-16T07:46:24;1.10;99.90
13049;DHT22;6591;51.446;5.404;2024-01-16T07:48:52;1.10;99.90
13049;DHT22;6591;51.446;5.404;2024-01-16T07:51:19;1.10;99.90
13049;DHT22;6591;51.446;5.404;2024-01-16T07:53:46;3.00;99.90
13049;DHT22;6591;51.446;5.404;2024-01-16T07:56:15;1.10;99.90
13049;DHT22;6591;51.446;5.404;2024-01-16T07:58:42;1.20;99.90
13049;DHT22;6591;51.446;5.404;2024-01-16T08:01:10;1.20;99.90
13049;DHT22;6591;51.446;5.404;2024-01-16T08:03:38;-0.30;99.90
13049;DHT22;6591;51.446;5.404;2024-01-16T08:06:06;1.20;99.90
13049;DHT22;6591;51.446;5.404;2024-01-16T08:08:33;1.20;99.90
13049;DHT22;6591;51.446;5.404;2024-01-16T08:11:01;1.20;99.90
13049;DHT22;6591;51.446;5.404;2024-01-16T08:13:28;1.70;99.90
13049;DHT22;6591;51.446;5.404;2024-01-16T08:15:55;1.20;99.90
13049;DHT22;6591;51.446;5.404;2024-01-16T08:18:22;1.30;99.90
13049;DHT22;6591;51.446;5.404;2024-01-16T08:20:50;2.60;99.90
13049;DHT22;6591;51.446;5.404;2024-01-16T08:23:17;1.30;99.90
13049;DHT22;6591;51.446;5.404;2024-01-16T08:25:44;1.30;99.90
13049;DHT22;6591;51.446;5.404;2024-01-16T08:28:11;1.40;99.90
13049;DHT22;6591;51.446;5.404;2024-01-16T08:30:38;1.40;99.90
13049;DHT22;6591;51.446;5.404;2024-01-16T08:33:11;2.30;99.90
13049;DHT22;6591;51.446;5.404;2024-01-16T08:35:40;1.40;99.90
13049;DHT22;6591;51.446;5.404;2024-01-16T08:38:08;1.50;99.90
13049;DHT22;6591;51.446;5.404;2024-01-16T08:40:35;2.90;99.90
13049;DHT22;6591;51.446;5.404;2024-01-16T08:43:03;1.50;99.90
13049;DHT22;6591;51.446;5.404;2024-01-16T08:45:30;1.80;99.90
13049;DHT22;6591;51.446;5.404;2024-01-16T08:47:57;1.50;99.90
13049;DHT22;6591;51.446;5.404;2024-01-16T08:50:28;3.60;99.90
13049;DHT22;6591;51.446;5.404;2024-01-16T08:52:55;1.60;99.90
13049;DHT22;6591;51.446;5.404;2024-01-16T08:55:22;1.40;99.90
13049;DHT22;6591;51.446;5.404;2024-01-16T08:57:50;1.60;99.90
13049;DHT22;6591;51.446;5.404;2024-01-16T09:00:17;1.60;99.90
13049;DHT22;6591;51.446;5.404;2024-01-16T09:02:44;1.70;99.90
13049;DHT22;6591;51.446;5.404;2024-01-16T09:05:11;1.70;99.90
13049;DHT22;6591;51.446;5.404;2024-01-16T09:07:40;2.60;99.90
13049;DHT22;6591;51.446;5.404;2024-01-16T09:10:08;1.70;99.90
13049;DHT22;6591;51.446;5.404;2024-01-16T09:12:35;1.70;99.90
13049;DHT22;6591;51.446;5.404;2024-01-16T09:15:02;1.70;99.90
13049;DHT22;6591;51.446;5.404;2024-01-16T09:17:31;1.80;99.90
13049;DHT22;6591;51.446;5.404;2024-01-16T09:19:59;1.80;99.90
13049;DHT22;6591;51.446;5.404;2024-01-16T09:22:26;1.80;99.90
13049;DHT22;6591;51.446;5.404;2024-01-16T09:24:53;1.80;99.90
13049;DHT22;6591;51.446;5.404;2024-01-16T09:27:23;1.80;99.90
13049;DHT22;6591;51.446;5.404;2024-01-16T09:29:50;1.90;99.90
13049;DHT22;6591;51.446;5.404;2024-01-16T09:32:17;1.90;99.90
13049;DHT22;6591;51.446;5.404;2024-01-16T09:34:45;1.90;99.90
13049;DHT22;6591;51.446;5.404;2024-01-16T09:37:13;1.90;99.90
13049;DHT22;6591;51.446;5.404;2024-01-16T09:39:41;1.90;99.90
13049;DHT22;6591;51.446;5.404;2024-01-16T09:42:09;2.00;99.90
13049;DHT22;6591;51.446;5.404;2024-01-16T09:44:36;2.80;99.90
13049;DHT22;6591;51.446;5.404;2024-01-16T09:47:05;2.00;99.90
13049;DHT22;6591;51.446;5.404;2024-01-16T09:49:35;2.90;99.90
13049;DHT22;6591;51.446;5.404;2024-01-16T09:52:02;2.90;99.90
13049;DHT22;6591;51.446;5.404;2024-01-16T09:54:30;2.20;99.90
13049;DHT22;6591;51.446;5.404;2024-01-16T09:56:58;2.20;99.90
13049;DHT22;6591;51.446;5.404;2024-01-16T09:59:27;2.20;99.90
13049;DHT22;6591;51.446;5.404;2024-01-16T10:01:57;2.30;99.90
13049;DHT22;6591;51.446;5.404;2024-01-16T10:04:27;2.30;99.90
13049;DHT22;6591;51.446;5.404;2024-01-16T10:06:55;4.40;99.90
13049;DHT22;6591;51.446;5.404;2024-01-16T10:09:24;3.40;99.90
13049;DHT22;6591;51.446;5.404;2024-01-16T10:11:52;2.40;99.90
13049;DHT22;6591;51.446;5.404;2024-01-16T10:14:21;2.40;99.90
13049;DHT22;6591;51.446;5.404;2024-01-16T10:17:04;3.10;99.90
13049;DHT22;6591;51.446;5.404;2024-01-16T10:19:49;2.40;99.90
13049;DHT22;6591;51.446;5.404;2024-01-16T10:22:23;2.50;99.90
13049;DHT22;6591;51.446;5.404;2024-01-16T10:25:12;2.50;99.90
13049;DHT22;6591;51.446;5.404;2024-01-16T10:27:44;2.50;99.90
13049;DHT22;6591;51.446;5.404;2024-01-16T10:30:11;2.50;99.90
13049;DHT22;6591;51.446;5.404;2024-01-16T10:32:41;2.50;99.90
13049;DHT22;6591;51.446;5.404;2024-01-16T10:35:11;2.50;99.90
13049;DHT22;6591;51.446;5.404;2024-01-16T10:37:53;2.50;99.90
13049;DHT22;6591;51.446;5.404;2024-01-16T10:40:24;2.50;99.90
13049;DHT22;6591;51.446;5.404;2024-01-16T10:43:01;4.90;99.90
13049;DHT22;6591;51.446;5.404;2024-01-16T10:45:35;2.60;99.90
13049;DHT22;6591;51.446;5.404;2024-01-16T10:48:05;2.60;99.90
13049;DHT22;6591;51.446;5.404;2024-01-16T10:50:37;2.60;99.90
13049;DHT22;6591;51.446;5.404;2024-01-16T10:53:08;2.60;99.90
13049;DHT22;6591;51.446;5.404;2024-01-16T10:55:49;2.60;99.90
13049;DHT22;6591;51.446;5.404;2024-01-16T10:58:23;2.70;99.90
13049;DHT22;6591;51.446;5.404;2024-01-16T11:00:53;2.70;99.90
13049;DHT22;6591;51.446;5.404;2024-01-16T11:03:37;2.70;99.90
13049;DHT22;6591;51.446;5.404;2024-01-16T11:06:08;2.80;99.90
13049;DHT22;6591;51.446;5.404;2024-01-16T11:08:36;2.80;99.90
13049;DHT22;6591;51.446;5.404;2024-01-16T11:11:05;2.70;99.90
13049;DHT22;6591;51.446;5.404;2024-01-16T11:13:36;2.90;99.90
13049;DHT22;6591;51.446;5.404;2024-01-16T11:16:04;3.00;99.90
13049;DHT22;6591;51.446;5.404;2024-01-16T11:18:33;3.10;99.90
13049;DHT22;6591;51.446;5.404;2024-01-16T11:21:13;3.10;99.90
13049;DHT22;6591;51.446;5.404;2024-01-16T11:23:45;3.20;99.90
13049;DHT22;6591;51.446;5.404;2024-01-16T11:28:55;3.20;99.90
13049;DHT22;6591;51.446;5.404;2024-01-16T11:31:35;3.20;99.90
13049;DHT22;6591;51.446;5.404;2024-01-16T11:34:02;3.70;99.90
13049;DHT22;6591;51.446;5.404;2024-01-16T11:39:18;3.30;99.90
13049;DHT22;6591;51.446;5.404;2024-01-16T11:47:09;3.40;99.90
13049;DHT22;6591;51.446;5.404;2024-01-16T11:49:42;3.40;99.90
13049;DHT22;6591;51.446;5.404;2024-01-16T11:52:09;5.70;99.90
13049;DHT22;6591;51.446;5.404;2024-01-16T11:54:38;4.20;99.90
13049;DHT22;6591;51.446;5.404;2024-01-16T12:00:41;3.60;99.90
13049;DHT22;6591;51.446;5.404;2024-01-16T12:03:14;3.60;99.90
13049;DHT22;6591;51.446;5.404;2024-01-16T12:06:01;3.60;99.90
13049;DHT22;6591;51.446;5.404;2024-01-16T12:08:30;3.60;99.90
13049;DHT22;6591;51.446;5.404;2024-01-16T12:10:58;3.80;99.90
13049;DHT22;6591;51.446;5.404;2024-01-16T12:13:26;3.70;99.90
13049;DHT22;6591;51.446;5.404;2024-01-16T12:16:01;3.70;99.90
13049;DHT22;6591;51.446;5.404;2024-01-16T12:18:28;3.80;99.90
13049;DHT22;6591;51.446;5.404;2024-01-16T12:21:09;3.80;99.90
13049;DHT22;6591;51.446;5.404;2024-01-16T12:23:38;3.90;99.90
13049;DHT22;6591;51.446;5.404;2024-01-16T12:26:22;3.80;99.90
13049;DHT22;6591;51.446;5.404;2024-01-16T12:28:53;3.90;99.90
13049;DHT22;6591;51.446;5.404;2024-01-16T12:31:29;3.90;99.90
13049;DHT22;6591;51.446;5.404;2024-01-16T12:34:09;4.00;99.90
13049;DHT22;6591;51.446;5.404;2024-01-16T12:36:37;6.00;99.90
13049;DHT22;6591;51.446;5.404;2024-01-16T12:39:05;4.00;99.90
13049;DHT22;6591;51.446;5.404;2024-01-16T12:41:41;4.00;99.90
13049;DHT22;6591;51.446;5.404;2024-01-16T12:44:10;4.00;99.90
13049;DHT22;6591;51.446;5.404;2024-01-16T12:46:56;4.00;99.90
13049;DHT22;6591;51.446;5.404;2024-01-16T12:49:24;4.20;99.90
13049;DHT22;6591;51.446;5.404;2024-01-16T12:51:52;4.00;99.90
13049;DHT22;6591;51.446;5.404;2024-01-16T12:54:48;4.00;99.90
13049;DHT22;6591;51.446;5.404;2024-01-16T12:57:19;4.00;99.90
13049;DHT22;6591;51.446;5.404;2024-01-16T12:59:48;4.10;99.90
13049;DHT22;6591;51.446;5.404;2024-01-16T13:02:21;4.10;99.90
13049;DHT22;6591;51.446;5.404;2024-01-16T13:04:59;4.00;99.90
13049;DHT22;6591;51.446;5.404;2024-01-16T13:07:30;4.10;99.90
13049;DHT22;6591;51.446;5.404;2024-01-16T13:10:10;4.10;99.90
13049;DHT22;6591;51.446;5.404;2024-01-16T13:12:39;4.10;99.90
13049;DHT22;6591;51.446;5.404;2024-01-16T13:15:08;4.10;99.90
13049;DHT22;6591;51.446;5.404;2024-01-16T13:17:35;4.10;99.90
13049;DHT22;6591;51.446;5.404;2024-01-16T13:20:03;4.10;99.90
13049;DHT22;6591;51.446;5.404;2024-01-16T13:22:34;4.20;99.90
13049;DHT22;6591;51.446;5.404;2024-01-16T13:25:12;4.20;99.90
13049;DHT22;6591;51.446;5.404;2024-01-16T13:27:39;4.20;99.90
13049;DHT22;6591;51.446;5.404;2024-01-16T13:30:07;4.10;99.90
13049;DHT22;6591;51.446;5.404;2024-01-16T13:32:35;4.20;99.90
13049;DHT22;6591;51.446;5.404;2024-01-16T13:35:05;4.10;99.90
13049;DHT22;6591;51.446;5.404;2024-01-16T13:37:36;4.10;99.90
13049;DHT22;6591;51.446;5.404;2024-01-16T13:40:08;4.10;99.90
13049;DHT22;6591;51.446;5.404;2024-01-16T13:42:40;4.10;99.90
13049;DHT22;6591;51.446;5.404;2024-01-16T13:45:08;4.10;99.90
13049;DHT22;6591;51.446;5.404;2024-01-16T13:47:39;4.10;99.90
13049;DHT22;6591;51.446;5.404;2024-01-16T13:50:08;4.30;99.90
13049;DHT22;6591;51.446;5.404;2024-01-16T13:52:36;4.10;99.90
13049;DHT22;6591;51.446;5.404;2024-01-16T13:55:03;4.10;99.90
13049;DHT22;6591;51.446;5.404;2024-01-16T13:57:33;4.00;99.90
13049;DHT22;6591;51.446;5.404;2024-01-16T14:00:04;4.10;99.90
13049;DHT22;6591;51.446;5.404;2024-01-16T14:05:09;4.00;99.90
13049;DHT22;6591;51.446;5.404;2024-01-16T14:07:42;4.00;99.90
13049;DHT22;6591;51.446;5.404;2024-01-16T14:10:10;4.00;99.90
13049;DHT22;6591;51.446;5.404;2024-01-16T14:12:42;4.00;99.90
13049;DHT22;6591;51.446;5.404;2024-01-16T14:15:12;6.20;99.90
13049;DHT22;6591;51.446;5.404;2024-01-16T14:17:44;4.10;99.90
13049;DHT22;6591;51.446;5.404;2024-01-16T14:20:14;4.20;99.90
13049;DHT22;6591;51.446;5.404;2024-01-16T14:22:42;4.20;99.90
13049;DHT22;6591;51.446;5.404;2024-01-16T14:25:12;4.30;99.90
13049;DHT22;6591;51.446;5.404;2024-01-16T14:27:43;4.20;99.90
13049;DHT22;6591;51.446;5.404;2024-01-16T14:30:27;4.20;99.90
13049;DHT22;6591;51.446;5.404;2024-01-16T14:32:55;4.10;99.90
13049;DHT22;6591;51.446;5.404;2024-01-16T14:35:23;4.80;99.90
13049;DHT22;6591;51.446;5.404;2024-01-16T14:37:51;5.90;99.90
13049;DHT22;6591;51.446;5.404;2024-01-16T14:40:19;4.10;99.90
13049;DHT22;6591;51.446;5.404;2024-01-16T14:42:53;4.00;99.90
13049;DHT22;6591;51.446;5.404;2024-01-16T14:45:23;4.00;99.90
13049;DHT22;6591;51.446;5.404;2024-01-16T14:47:51;3.90;99.90
13049;DHT22;6591;51.446;5.404;2024-01-16T14:50:20;3.90;99.90
13049;DHT22;6591;51.446;5.404;2024-01-16T14:52:49;3.80;99.90
13049;DHT22;6591;51.446;5.404;2024-01-16T14:55:18;3.80;99.90
13049;DHT22;6591;51.446;5.404;2024-01-16T14:57:49;3.80;99.90
13049;DHT22;6591;51.446;5.404;2024-01-16T15:00:22;3.80;99.90
13049;DHT22;6591;51.446;5.404;2024-01-16T15:02:54;3.70;99.90
13049;DHT22;6591;51.446;5.404;2024-01-16T15:05:21;4.00;99.90
13049;DHT22;6591;51.446;5.404;2024-01-16T15:07:50;5.30;99.90
13049;DHT22;6591;51.446;5.404;2024-01-16T15:10:20;3.50;99.90
13049;DHT22;6591;51.446;5.404;2024-01-16T15:12:50;3.50;99.90
13049;DHT22;6591;51.446;5.404;2024-01-16T15:15:17;3.50;99.90
13049;DHT22;6591;51.446;5.404;2024-01-16T15:17:45;3.30;99.90
13049;DHT22;6591;51.446;5.404;2024-01-16T15:20:12;3.30;99.90
13049;DHT22;6591;51.446;5.404;2024-01-16T15:22:41;3.30;99.90
13049;DHT22;6591;51.446;5.404;2024-01-16T15:25:13;3.20;99.90
13049;DHT22;6591;51.446;5.404;2024-01-16T15:27:43;3.10;99.90
13049;DHT22;6591;51.446;5.404;2024-01-16T15:30:12;3.10;99.90
13049;DHT22;6591;51.446;5.404;2024-01-16T15:32:41;3.00;99.90
13049;DHT22;6591;51.446;5.404;2024-01-16T15:35:08;2.90;99.90
13049;DHT22;6591;51.446;5.404;2024-01-16T15:37:35;2.90;99.90
13049;DHT22;6591;51.446;5.404;2024-01-16T15:40:03;2.80;99.90
13049;DHT22;6591;51.446;5.404;2024-01-16T15:42:34;2.70;99.90
13049;DHT22;6591;51.446;5.404;2024-01-16T15:45:07;2.70;99.90
13049;DHT22;6591;51.446;5.404;2024-01-16T15:47:36;2.60;99.90
13049;DHT22;6591;51.446;5.404;2024-01-16T15:50:04;2.50;99.90
13049;DHT22;6591;51.446;5.404;2024-01-16T15:52:32;2.50;99.90
13049;DHT22;6591;51.446;5.404;2024-01-16T15:55:00;2.40;99.90
13049;DHT22;6591;51.446;5.404;2024-01-16T15:57:28;2.30;99.90
13049;DHT22;6591;51.446;5.404;2024-01-16T15:59:57;2.30;99.90
13049;DHT22;6591;51.446;5.404;2024-01-16T16:02:24;2.20;99.90
13049;DHT22;6591;51.446;5.404;2024-01-16T16:04:51;2.10;99.90
13049;DHT22;6591;51.446;5.404;2024-01-16T16:07:18;2.10;99.90
13049;DHT22;6591;51.446;5.404;2024-01-16T16:09:52;2.00;99.90
13049;DHT22;6591;51.446;5.404;2024-01-16T16:12:19;2.30;99.90
13049;DHT22;6591;51.446;5.404;2024-01-16T16:14:46;1.90;99.90
13049;DHT22;6591;51.446;5.404;2024-01-16T16:17:13;1.80;99.90
13049;DHT22;6591;51.446;5.404;2024-01-16T16:19:40;1.80;99.90
13049;DHT22;6591;51.446;5.404;2024-01-16T16:22:08;1.70;99.90
13049;DHT22;6591;51.446;5.404;2024-01-16T16:24:35;1.60;99.90
13049;DHT22;6591;51.446;5.404;2024-01-16T16:27:02;1.50;99.90
13049;DHT22;6591;51.446;5.404;2024-01-16T16:29:49;1.50;99.90
13049;DHT22;6591;51.446;5.404;2024-01-16T16:32:16;1.50;99.90
13049;DHT22;6591;51.446;5.404;2024-01-16T16:34:47;1.50;99.90
13049;DHT22;6591;51.446;5.404;2024-01-16T16:37:15;3.10;99.90